sensor_id;sensor_type;location;lat;lon;timestamp;pressure;altitude;pressure_sealevel;temperature;humidity
35694;BME280;21812;55.536;37.664;2023-08-07T00:00:34;99727.38;;;24.44;53.97
35694;BME280;21812;55.536;37.664;2023-08-07T00:03:00;99723.56;;;24.45;53.80
35694;BME280;21812;55.536;37.664;2023-08-07T00:05:26;99729.81;;;24.46;54.55
35694;BME280;21812;55.536;37.664;2023-08-07T00:07:52;99727.38;;;24.44;54.77
35694;BME280;21812;55.536;37.664;2023-08-07T00:10:17;99730.16;;;24.39;56.47
35694;BME280;21812;55.536;37.664;2023-08-07T00:12:43;99721.44;;;24.32;57.49
35694;BME280;21812;55.536;37.664;2023-08-07T00:15:09;99729.91;;;24.35;55.80
35694;BME280;21812;55.536;37.664;2023-08-07T00:17:36;99728.00;;;24.31;56.18
35694;BME280;21812;55.536;37.664;2023-08-07T00:20:02;99734.03;;;24.28;57.30
35694;BME280;21812;55.536;37.664;2023-08-07T00:22:30;99730.78;;;24.26;56.53
35694;BME280;21812;55.536;37.664;2023-08-07T00:24:56;99726.94;;;24.27;56.50
35694;BME280;21812;55.536;37.664;2023-08-07T00:27:21;99729.13;;;24.25;56.51
35694;BME280;21812;55.536;37.664;2023-08-07T00:29:47;99725.31;;;24.26;56.68
35694;BME280;21812;55.536;37.664;2023-08-07T00:32:13;99724.47;;;24.25;56.34
35694;BME280;21812;55.536;37.664;2023-08-07T00:34:40;99726.66;;;24.23;56.50
35694;BME280;21812;55.536;37.664;2023-08-07T00:37:06;99725.59;;;24.24;57.32
35694;BME280;21812;55.536;37.664;2023-08-07T00:39:34;99725.31;;;24.26;57.17
35694;BME280;21812;55.536;37.664;2023-08-07T00:41:59;99720.94;;;24.25;58.03
35694;BME280;21812;55.536;37.664;2023-08-07T00:44:26;99721.78;;;24.20;59.30
35694;BME280;21812;55.536;37.664;2023-08-07T00:46:51;99719.06;;;24.20;57.48
35694;BME280;21812;55.536;37.664;2023-08-07T00:49:18;99714.72;;;24.14;57.43
35694;BME280;21812;55.536;37.664;2023-08-07T00:51:45;99724.22;;;24.22;58.17
35694;BME280;21812;55.536;37.664;2023-08-07T00:54:14;99734.63;;;24.14;59.22
35694;BME280;21812;55.536;37.664;2023-08-07T00:56:40;99727.78;;;24.17;58.58
35694;BME280;21812;55.536;37.664;2023-08-07T00:59:06;99725.88;;;24.17;58.48
35694;BME280;21812;55.536;37.664;2023-08-07T01:01:33;99720.47;;;24.12;58.42
35694;BME280;21812;55.536;37.664;2023-08-07T01:03:59;99720.69;;;24.16;58.37
35694;BME280;21812;55.536;37.664;2023-08-07T01:06:26;99714.16;;;24.17;58.70
35694;BME280;21812;55.536;37.664;2023-08-07T01:08:52;99710.63;;;24.16;59.22
35694;BME280;21812;55.536;37.664;2023-08-07T01:17:05;99717.16;;;24.10;60.80
35694;BME280;21812;55.536;37.664;2023-08-07T01:19:31;99707.97;;;24.01;59.72
35694;BME280;21812;55.536;37.664;2023-08-07T01:22:10;99706.84;;;24.07;59.71
35694;BME280;21812;55.536;37.664;2023-08-07T01:24:41;99699.25;;;23.99;59.82
35694;BME280;21812;55.536;37.664;2023-08-07T01:35:08;99698.66;;;24.02;60.34
35694;BME280;21812;55.536;37.664;2023-08-07T01:37:40;99703.31;;;24.07;60.08
35694;BME280;21812;55.536;37.664;2023-08-07T01:40:08;99696.75;;;24.08;59.82
35694;BME280;21812;55.536;37.664;2023-08-07T01:42:35;99700.31;;;24.03;60.56
35694;BME280;21812;55.536;37.664;2023-08-07T01:45:01;99689.41;;;24.03;60.22
35694;BME280;21812;55.536;37.664;2023-08-07T01:47:32;99686.69;;;23.98;60.88
35694;BME280;21812;55.536;37.664;2023-08-07T01:49:57;99691.59;;;24.01;60.17
35694;BME280;21812;55.536;37.664;2023-08-07T01:52:23;99690.75;;;24.00;60.02
35694;BME280;21812;55.536;37.664;2023-08-07T01:54:49;99688.88;;;24.01;60.80
35694;BME280;21812;55.536;37.664;2023-08-07T01:57:14;99688.88;;;24.01;60.75
35694;BME280;21812;55.536;37.664;2023-08-07T01:59:40;99687.75;;;24.02;60.46
35694;BME280;21812;55.536;37.664;2023-08-07T02:02:06;99689.41;;;24.03;60.44
35694;BME280;21812;55.536;37.664;2023-08-07T02:04:32;99690.22;;;24.04;60.94
35694;BME280;21812;55.536;37.664;2023-08-07T02:06:57;99696.47;;;24.04;60.57
35694;BME280;21812;55.536;37.664;2023-08-07T02:09:23;99691.03;;;24.04;60.49
35694;BME280;21812;55.536;37.664;2023-08-07T02:11:49;99691.56;;;24.06;60.69
35694;BME280;21812;55.536;37.664;2023-08-07T02:14:15;99699.75;;;24.06;61.00
35694;BME280;21812;55.536;37.664;2023-08-07T02:16:41;99691.88;;;24.05;60.27
35694;BME280;21812;55.536;37.664;2023-08-07T02:19:07;99698.38;;;24.09;60.68
35694;BME280;21812;55.536;37.664;2023-08-07T02:21:33;99689.63;;;24.12;60.19
35694;BME280;21812;55.536;37.664;2023-08-07T02:23:58;99696.44;;;24.14;60.08
35694;BME280;21812;55.536;37.664;2023-08-07T02:26:24;99680.63;;;24.16;60.26
35694;BME280;21812;55.536;37.664;2023-08-07T02:28:50;99695.88;;;24.17;60.57
35694;BME280;21812;55.536;37.664;2023-08-07T02:31:15;99690.41;;;24.17;60.68
35694;BME280;21812;55.536;37.664;2023-08-07T02:33:41;99685.53;;;24.14;60.08
35694;BME280;21812;55.536;37.664;2023-08-07T02:36:07;99689.88;;;24.15;60.63
35694;BME280;21812;55.536;37.664;2023-08-07T02:38:33;99687.69;;;24.17;60.52
35694;BME280;21812;55.536;37.664;2023-08-07T02:40:59;99687.97;;;24.16;60.51
35694;BME280;21812;55.536;37.664;2023-08-07T02:43:25;99694.81;;;24.13;60.83
35694;BME280;21812;55.536;37.664;2023-08-07T02:45:52;99692.59;;;24.15;60.97
35694;BME280;21812;55.536;37.664;2023-08-07T02:48:18;99689.88;;;24.15;60.89
35694;BME280;21812;55.536;37.664;2023-08-07T02:50:45;99685.53;;;24.14;60.84
35694;BME280;21812;55.536;37.664;2023-08-07T02:53:11;99679.56;;;24.07;61.26
35694;BME280;21812;55.536;37.664;2023-08-07T02:55:37;99689.59;;;24.17;60.86
35694;BME280;21812;55.536;37.664;2023-08-07T02:58:03;99681.69;;;24.15;60.77
35694;BME280;21812;55.536;37.664;2023-08-07T03:00:29;99693.94;;;24.23;60.94
35694;BME280;21812;55.536;37.664;2023-08-07T03:02:54;99691.72;;;24.25;60.50
35694;BME280;21812;55.536;37.664;2023-08-07T03:05:20;99687.66;;;24.28;60.45
35694;BME280;21812;55.536;37.664;2023-08-07T03:07:45;99671.03;;;24.24;60.51
35694;BME280;21812;55.536;37.664;2023-08-07T03:10:11;99684.59;;;24.34;60.36
35694;BME280;21812;55.536;37.664;2023-08-07T03:12:37;99688.13;;;24.35;60.37
35694;BME280;21812;55.536;37.664;2023-08-07T03:15:05;99669.63;;;24.27;60.17
35694;BME280;21812;55.536;37.664;2023-08-07T03:17:31;99688.34;;;24.44;60.21
35694;BME280;21812;55.536;37.664;2023-08-07T03:19:57;99687.28;;;24.45;60.01
35694;BME280;21812;55.536;37.664;2023-08-07T03:22:23;99684.81;;;24.43;60.31
35694;BME280;21812;55.536;37.664;2023-08-07T03:24:49;99687.56;;;24.43;60.54
35694;BME280;21812;55.536;37.664;2023-08-07T03:27:15;99686.44;;;24.44;60.59
35694;BME280;21812;55.536;37.664;2023-08-07T03:29:41;99681.25;;;24.43;60.52
35694;BME280;21812;55.536;37.664;2023-08-07T03:32:08;99639.69;;;24.16;60.74
35694;BME280;21812;55.536;37.664;2023-08-07T03:34:36;99685.91;;;24.42;60.73
35694;BME280;21812;55.536;37.664;2023-08-07T03:37:02;99679.09;;;24.45;60.64
35694;BME280;21812;55.536;37.664;2023-08-07T03:39:28;99680.41;;;24.47;60.78
35694;BME280;21812;55.536;37.664;2023-08-07T03:41:54;99685.59;;;24.49;60.57
35694;BME280;21812;55.536;37.664;2023-08-07T03:44:20;99684.50;;;24.50;60.61
35694;BME280;21812;55.536;37.664;2023-08-07T03:46:46;99682.59;;;24.50;60.56
35694;BME280;21812;55.536;37.664;2023-08-07T03:49:11;99679.31;;;24.53;60.56
35694;BME280;21812;55.536;37.664;2023-08-07T03:51:37;99682.03;;;24.53;60.38
35694;BME280;21812;55.536;37.664;2023-08-07T03:54:03;99682.28;;;24.57;60.35
35694;BME280;21812;55.536;37.664;2023-08-07T03:56:29;99678.16;;;24.59;60.31
35694;BME280;21812;55.536;37.664;2023-08-07T03:59:02;99686.34;;;24.59;60.10
35694;BME280;21812;55.536;37.664;2023-08-07T04:01:29;99681.44;;;24.62;59.91
35694;BME280;21812;55.536;37.664;2023-08-07T04:03:55;99672.72;;;24.59;60.41
35694;BME280;21812;55.536;37.664;2023-08-07T04:06:20;99675.69;;;24.63;60.18
35694;BME280;21812;55.536;37.664;2023-08-07T04:08:47;99674.88;;;24.63;61.04
35694;BME280;21812;55.536;37.664;2023-08-07T04:11:13;99666.41;;;24.64;61.52
35694;BME280;21812;55.536;37.664;2023-08-07T04:13:39;99671.34;;;24.62;61.08
35694;BME280;21812;55.536;37.664;2023-08-07T04:16:05;99683.03;;;24.68;61.00
35694;BME280;21812;55.536;37.664;2023-08-07T04:18:32;99683.84;;;24.68;61.22
35694;BME280;21812;55.536;37.664;2023-08-07T04:21:00;99667.75;;;24.67;61.28
35694;BME280;21812;55.536;37.664;2023-08-07T04:23:26;99678.13;;;24.70;61.29
35694;BME280;21812;55.536;37.664;2023-08-07T04:25:52;99676.31;;;24.50;61.88
35694;BME280;21812;55.536;37.664;2023-08-07T04:28:19;99684.41;;;24.20;62.98
35694;BME280;21812;55.536;37.664;2023-08-07T04:30:47;99677.19;;;23.95;63.86
35694;BME280;21812;55.536;37.664;2023-08-07T04:33:14;99677.78;;;23.82;64.37
35694;BME280;21812;55.536;37.664;2023-08-07T04:35:40;99673.16;;;23.72;65.05
35694;BME280;21812;55.536;37.664;2023-08-07T04:38:05;99673.72;;;23.64;65.29
35694;BME280;21812;55.536;37.664;2023-08-07T04:40:31;99673.72;;;23.64;65.65
35694;BME280;21812;55.536;37.664;2023-08-07T04:42:57;99669.09;;;23.59;65.16
35694;BME280;21812;55.536;37.664;2023-08-07T04:45:23;99667.44;;;23.64;65.15
35694;BME280;21812;55.536;37.664;2023-08-07T04:47:48;99673.16;;;23.62;65.04
35694;BME280;21812;55.536;37.664;2023-08-07T04:50:14;99670.44;;;23.62;65.44
35694;BME280;21812;55.536;37.664;2023-08-07T04:52:40;99666.66;;;23.58;65.01
35694;BME280;21812;55.536;37.664;2023-08-07T04:55:06;99665.84;;;23.57;64.78
35694;BME280;21812;55.536;37.664;2023-08-07T04:57:32;99673.75;;;23.54;64.30
35694;BME280;21812;55.536;37.664;2023-08-07T04:59:57;99666.66;;;23.53;64.88
35694;BME280;21812;55.536;37.664;2023-08-07T05:02:23;99667.72;;;23.62;65.99
35694;BME280;21812;55.536;37.664;2023-08-07T05:04:49;99663.91;;;23.63;64.74
35694;BME280;21812;55.536;37.664;2023-08-07T05:07:14;99660.09;;;23.64;64.30
35694;BME280;21812;55.536;37.664;2023-08-07T05:09:40;99665.25;;;23.66;64.18
35694;BME280;21812;55.536;37.664;2023-08-07T05:12:07;99662.53;;;23.71;64.65
35694;BME280;21812;55.536;37.664;2023-08-07T05:14:33;99657.34;;;23.74;64.67
35694;BME280;21812;55.536;37.664;2023-08-07T05:16:58;99647.53;;;23.78;64.68
35694;BME280;21812;55.536;37.664;2023-08-07T05:19:27;99647.47;;;23.84;64.80
35694;BME280;21812;55.536;37.664;2023-08-07T05:21:53;99654.03;;;23.88;64.84
35694;BME280;21812;55.536;37.664;2023-08-07T05:24:18;99656.19;;;23.91;64.35
35694;BME280;21812;55.536;37.664;2023-08-07T05:26:44;99649.38;;;23.88;63.21
35694;BME280;21812;55.536;37.664;2023-08-07T05:29:10;99642.59;;;23.86;62.73
35694;BME280;21812;55.536;37.664;2023-08-07T05:31:36;99646.91;;;23.92;63.25
35694;BME280;21812;55.536;37.664;2023-08-07T05:34:02;99636.28;;;23.95;63.18
35694;BME280;21812;55.536;37.664;2023-08-07T05:36:28;99635.41;;;24.00;62.29
35694;BME280;21812;55.536;37.664;2023-08-07T05:38:57;99640.84;;;24.05;62.60
35694;BME280;21812;55.536;37.664;2023-08-07T05:41:23;99640.00;;;24.10;62.76
35694;BME280;21812;55.536;37.664;2023-08-07T05:43:49;99632.06;;;24.13;62.05
35694;BME280;21812;55.536;37.664;2023-08-07T05:46:15;99630.41;;;24.17;62.84
35694;BME280;21812;55.536;37.664;2023-08-07T05:48:40;99631.19;;;24.23;62.67
35694;BME280;21812;55.536;37.664;2023-08-07T05:51:06;99635.56;;;24.24;61.16
35694;BME280;21812;55.536;37.664;2023-08-07T05:53:34;99628.19;;;24.25;61.28
35694;BME280;21812;55.536;37.664;2023-08-07T05:56:00;99621.09;;;24.24;60.32
35694;BME280;21812;55.536;37.664;2023-08-07T05:58:26;99620.25;;;24.28;61.29
35694;BME280;21812;55.536;37.664;2023-08-07T06:00:51;99611.19;;;24.33;61.54
35694;BME280;21812;55.536;37.664;2023-08-07T06:03:17;99617.75;;;24.37;61.52
35694;BME280;21812;55.536;37.664;2023-08-07T06:05:43;99609.50;;;24.42;61.20
35694;BME280;21812;55.536;37.664;2023-08-07T06:08:08;99622.00;;;24.48;61.50
35694;BME280;21812;55.536;37.664;2023-08-07T06:10:34;99611.34;;;24.52;60.89
35694;BME280;21812;55.536;37.664;2023-08-07T06:13:00;99614.34;;;24.55;59.57
35694;BME280;21812;55.536;37.664;2023-08-07T06:15:26;99618.72;;;24.56;59.52
35694;BME280;21812;55.536;37.664;2023-08-07T06:17:52;99613.78;;;24.58;59.07
35694;BME280;21812;55.536;37.664;2023-08-07T06:20:18;99613.50;;;24.60;59.04
35694;BME280;21812;55.536;37.664;2023-08-07T06:22:44;99616.41;;;24.69;59.96
35694;BME280;21812;55.536;37.664;2023-08-07T06:25:09;99608.19;;;24.74;59.26
35694;BME280;21812;55.536;37.664;2023-08-07T06:27:35;99608.94;;;24.80;58.90
35694;BME280;21812;55.536;37.664;2023-08-07T06:30:01;99613.53;;;24.84;58.83
35694;BME280;21812;55.536;37.664;2023-08-07T06:32:28;99608.03;;;24.89;58.42
35694;BME280;21812;55.536;37.664;2023-08-07T06:34:53;99612.94;;;24.92;58.62
35694;BME280;21812;55.536;37.664;2023-08-07T06:37:19;99622.47;;;24.95;58.80
35694;BME280;21812;55.536;37.664;2023-08-07T06:39:45;99611.53;;;24.95;58.02
35694;BME280;21812;55.536;37.664;2023-08-07T06:42:14;99606.84;;;25.01;58.42
35694;BME280;21812;55.536;37.664;2023-08-07T06:44:42;99602.13;;;25.06;58.72
35694;BME280;21812;55.536;37.664;2023-08-07T06:47:08;99598.59;;;25.06;58.10
35694;BME280;21812;55.536;37.664;2023-08-07T06:49:35;99611.34;;;25.15;58.54
35694;BME280;21812;55.536;37.664;2023-08-07T06:52:00;99602.25;;;25.20;57.62
35694;BME280;21812;55.536;37.664;2023-08-07T06:54:26;99605.50;;;25.22;57.84
35694;BME280;21812;55.536;37.664;2023-08-07T06:56:52;99595.13;;;25.24;57.40
35694;BME280;21812;55.536;37.664;2023-08-07T06:59:17;99597.28;;;25.27;56.73
35694;BME280;21812;55.536;37.664;2023-08-07T07:01:43;99598.06;;;25.33;57.46
35694;BME280;21812;55.536;37.664;2023-08-07T07:04:09;99590.38;;;25.35;56.98
35694;BME280;21812;55.536;37.664;2023-08-07T07:06:37;99577.13;;;25.23;57.32
35694;BME280;21812;55.536;37.664;2023-08-07T07:09:03;99590.56;;;25.44;57.43
35694;BME280;21812;55.536;37.664;2023-08-07T07:11:29;99593.81;;;25.46;57.23
35694;BME280;21812;55.536;37.664;2023-08-07T07:13:54;99584.94;;;25.54;57.05
35694;BME280;21812;55.536;37.664;2023-08-07T07:16:21;99592.56;;;25.57;56.63
35694;BME280;21812;55.536;37.664;2023-08-07T07:18:50;99593.09;;;25.59;55.82
35694;BME280;21812;55.536;37.664;2023-08-07T07:21:17;99581.84;;;25.61;55.86
35694;BME280;21812;55.536;37.664;2023-08-07T07:23:43;99583.50;;;25.62;55.49
35694;BME280;21812;55.536;37.664;2023-08-07T07:26:09;99582.59;;;25.66;55.37
35694;BME280;21812;55.536;37.664;2023-08-07T07:28:35;99585.88;;;25.68;55.05
35694;BME280;21812;55.536;37.664;2023-08-07T07:31:01;99578.38;;;25.74;54.81
35694;BME280;21812;55.536;37.664;2023-08-07T07:33:30;99583.28;;;25.77;54.33
35694;BME280;21812;55.536;37.664;2023-08-07T07:35:56;99582.19;;;25.78;53.08
35694;BME280;21812;55.536;37.664;2023-08-07T07:38:22;99577.22;;;25.80;53.08
35694;BME280;21812;55.536;37.664;2023-08-07T07:40:47;99579.88;;;25.85;53.30
35694;BME280;21812;55.536;37.664;2023-08-07T07:43:13;99580.09;;;25.89;53.87
35694;BME280;21812;55.536;37.664;2023-08-07T07:45:39;99575.41;;;25.94;54.38
35694;BME280;21812;55.536;37.664;2023-08-07T07:48:05;99562.97;;;26.02;54.32
35694;BME280;21812;55.536;37.664;2023-08-07T07:50:32;99570.31;;;26.07;53.72
35694;BME280;21812;55.536;37.664;2023-08-07T07:52:57;99547.41;;;26.03;53.56
35694;BME280;21812;55.536;37.664;2023-08-07T07:55:24;99575.84;;;26.21;53.65
35694;BME280;21812;55.536;37.664;2023-08-07T07:57:51;99565.69;;;26.21;53.25
35694;BME280;21812;55.536;37.664;2023-08-07T08:00:16;99556.63;;;26.26;52.46
35694;BME280;21812;55.536;37.664;2023-08-07T08:02:45;99563.13;;;26.30;52.02
35694;BME280;21812;55.536;37.664;2023-08-07T08:05:12;99560.09;;;26.31;51.84
35694;BME280;21812;55.536;37.664;2023-08-07T08:07:38;99559.47;;;26.34;53.30
35694;BME280;21812;55.536;37.664;2023-08-07T08:10:07;99545.38;;;26.27;52.81
35694;BME280;21812;55.536;37.664;2023-08-07T08:12:33;99554.66;;;26.45;52.39
35694;BME280;21812;55.536;37.664;2023-08-07T08:14:58;99550.19;;;26.49;51.84
35694;BME280;21812;55.536;37.664;2023-08-07T08:17:24;99544.41;;;26.51;51.68
35694;BME280;21812;55.536;37.664;2023-08-07T08:19:50;99547.88;;;26.57;51.58
35694;BME280;21812;55.536;37.664;2023-08-07T08:22:15;99541.53;;;26.61;52.01
35694;BME280;21812;55.536;37.664;2023-08-07T08:24:41;99538.19;;;26.64;52.01
35694;BME280;21812;55.536;37.664;2023-08-07T08:27:07;99546.63;;;26.68;51.79
35694;BME280;21812;55.536;37.664;2023-08-07T08:29:32;99532.81;;;26.73;50.94
35694;BME280;21812;55.536;37.664;2023-08-07T08:31:58;99541.75;;;26.79;50.99
35694;BME280;21812;55.536;37.664;2023-08-07T08:34:26;99532.72;;;26.78;50.69
35694;BME280;21812;55.536;37.664;2023-08-07T08:36:52;99535.88;;;26.85;50.52
35694;BME280;21812;55.536;37.664;2023-08-07T08:39:18;99539.34;;;26.91;50.29
35694;BME280;21812;55.536;37.664;2023-08-07T08:41:46;99550.00;;;26.92;49.94
35694;BME280;21812;55.536;37.664;2023-08-07T08:44:14;99538.13;;;26.97;50.06
35694;BME280;21812;55.536;37.664;2023-08-07T08:46:41;99513.97;;;26.85;49.77
35694;BME280;21812;55.536;37.664;2023-08-07T08:49:08;99525.13;;;27.03;49.96
35694;BME280;21812;55.536;37.664;2023-08-07T08:51:36;99525.34;;;27.06;49.93
35694;BME280;21812;55.536;37.664;2023-08-07T08:54:03;99523.22;;;27.17;50.56
35694;BME280;21812;55.536;37.664;2023-08-07T08:56:30;99526.28;;;27.29;50.26
35694;BME280;21812;55.536;37.664;2023-08-07T08:58:56;99516.81;;;27.36;50.07
35694;BME280;21812;55.536;37.664;2023-08-07T09:01:22;99518.03;;;27.43;49.53
35694;BME280;21812;55.536;37.664;2023-08-07T09:03:49;99505.66;;;27.46;48.38
35694;BME280;21812;55.536;37.664;2023-08-07T09:06:17;99508.78;;;27.53;49.71
35694;BME280;21812;55.536;37.664;2023-08-07T09:08:45;99512.22;;;27.59;49.38
35694;BME280;21812;55.536;37.664;2023-08-07T09:11:12;99487.84;;;27.57;48.82
35694;BME280;21812;55.536;37.664;2023-08-07T09:13:38;99508.31;;;27.74;47.83
35694;BME280;21812;55.536;37.664;2023-08-07T09:16:04;99503.22;;;27.81;48.00
35694;BME280;21812;55.536;37.664;2023-08-07T09:18:31;99499.22;;;27.87;48.12
35694;BME280;21812;55.536;37.664;2023-08-07T09:20:57;99496.88;;;27.94;47.90
35694;BME280;21812;55.536;37.664;2023-08-07T09:23:24;99484.19;;;27.84;47.89
35694;BME280;21812;55.536;37.664;2023-08-07T09:25:59;99488.09;;;28.06;48.25
35694;BME280;21812;55.536;37.664;2023-08-07T09:28:25;99490.59;;;28.16;46.13
35694;BME280;21812;55.536;37.664;2023-08-07T09:30:52;99484.84;;;28.26;46.47
35694;BME280;21812;55.536;37.664;2023-08-07T09:33:28;99484.56;;;28.37;46.09
35694;BME280;21812;55.536;37.664;2023-08-07T09:35:58;99482.00;;;28.40;46.24
35694;BME280;21812;55.536;37.664;2023-08-07T09:38:28;99482.06;;;28.49;47.26
35694;BME280;21812;55.536;37.664;2023-08-07T09:41:02;99484.25;;;28.61;47.10
35694;BME280;21812;55.536;37.664;2023-08-07T09:43:34;99477.03;;;28.74;46.91
35694;BME280;21812;55.536;37.664;2023-08-07T09:46:04;99473.06;;;28.89;45.69
35694;BME280;21812;55.536;37.664;2023-08-07T09:48:30;99458.84;;;28.95;45.18
35694;BME280;21812;55.536;37.664;2023-08-07T09:51:01;99463.22;;;29.05;46.15
35694;BME280;21812;55.536;37.664;2023-08-07T09:53:29;99471.53;;;29.22;46.32
35694;BME280;21812;55.536;37.664;2023-08-07T09:55:56;99464.78;;;29.29;44.62
35694;BME280;21812;55.536;37.664;2023-08-07T09:58:24;99470.28;;;29.46;45.89
35694;BME280;21812;55.536;37.664;2023-08-07T10:00:51;99469.31;;;29.59;45.60
35694;BME280;21812;55.536;37.664;2023-08-07T10:03:22;99457.16;;;29.60;44.66
35694;BME280;21812;55.536;37.664;2023-08-07T10:05:48;99457.50;;;29.85;44.75
35694;BME280;21812;55.536;37.664;2023-08-07T10:08:14;99452.97;;;30.07;43.65
35694;BME280;21812;55.536;37.664;2023-08-07T10:10:41;99456.16;;;30.26;42.71
35694;BME280;21812;55.536;37.664;2023-08-07T10:13:07;99445.75;;;30.49;42.91
35694;BME280;21812;55.536;37.664;2023-08-07T10:15:33;99446.75;;;30.74;43.87
35694;BME280;21812;55.536;37.664;2023-08-07T10:18:00;99452.84;;;30.89;42.59
35694;BME280;21812;55.536;37.664;2023-08-07T10:20:27;99442.78;;;31.02;41.13
35694;BME280;21812;55.536;37.664;2023-08-07T10:23:00;99445.41;;;31.19;41.41
35694;BME280;21812;55.536;37.664;2023-08-07T10:25:27;99435.84;;;31.37;41.70
35694;BME280;21812;55.536;37.664;2023-08-07T10:27:55;99413.78;;;31.37;40.70
35694;BME280;21812;55.536;37.664;2023-08-07T10:30:23;99391.84;;;31.41;40.70
35694;BME280;21812;55.536;37.664;2023-08-07T10:32:50;99437.94;;;31.83;40.63
35694;BME280;21812;55.536;37.664;2023-08-07T10:35:30;99429.63;;;32.04;39.94
35694;BME280;21812;55.536;37.664;2023-08-07T10:38:08;99401.81;;;32.21;39.52
35694;BME280;21812;55.536;37.664;2023-08-07T10:43:29;99415.22;;;32.56;38.04
35694;BME280;21812;55.536;37.664;2023-08-07T10:46:13;99415.25;;;32.81;38.37
35694;BME280;21812;55.536;37.664;2023-08-07T10:48:39;99412.22;;;33.10;39.05
35694;BME280;21812;55.536;37.664;2023-08-07T10:51:05;99406.28;;;33.37;39.24
35694;BME280;21812;55.536;37.664;2023-08-07T10:53:37;99409.22;;;33.56;37.60
35694;BME280;21812;55.536;37.664;2023-08-07T10:56:05;99397.09;;;33.61;36.55
35694;BME280;21812;55.536;37.664;2023-08-07T10:58:35;99380.97;;;33.50;36.31
35694;BME280;21812;55.536;37.664;2023-08-07T11:04:13;99391.97;;;34.19;36.68
35694;BME280;21812;55.536;37.664;2023-08-07T11:06:39;99399.22;;;34.40;35.95
35694;BME280;21812;55.536;37.664;2023-08-07T11:09:06;99399.13;;;34.36;34.63
35694;BME280;21812;55.536;37.664;2023-08-07T11:11:41;99391.34;;;34.58;35.27
35694;BME280;21812;55.536;37.664;2023-08-07T11:14:12;99390.75;;;35.00;35.58
35694;BME280;21812;55.536;37.664;2023-08-07T11:16:39;99378.06;;;35.18;34.65
35694;BME280;21812;55.536;37.664;2023-08-07T11:19:05;99384.13;;;35.24;33.49
35694;BME280;21812;55.536;37.664;2023-08-07T11:21:32;99373.19;;;35.31;34.12
35694;BME280;21812;55.536;37.664;2023-08-07T11:23:58;99375.66;;;35.56;33.31
35694;BME280;21812;55.536;37.664;2023-08-07T11:26:24;99367.63;;;35.51;32.63
35694;BME280;21812;55.536;37.664;2023-08-07T11:28:51;99368.53;;;35.74;33.78
35694;BME280;21812;55.536;37.664;2023-08-07T11:31:18;99369.88;;;36.07;32.87
35694;BME280;21812;55.536;37.664;2023-08-07T11:33:44;99374.38;;;36.35;32.84
35694;BME280;21812;55.536;37.664;2023-08-07T11:36:13;99367.81;;;36.73;32.11
35694;BME280;21812;55.536;37.664;2023-08-07T11:38:44;99344.22;;;36.90;31.58
35694;BME280;21812;55.536;37.664;2023-08-07T11:41:12;99362.28;;;37.04;31.02
35694;BME280;21812;55.536;37.664;2023-08-07T11:43:38;99367.03;;;37.33;31.23
35694;BME280;21812;55.536;37.664;2023-08-07T11:46:08;99352.97;;;37.53;30.81
35694;BME280;21812;55.536;37.664;2023-08-07T11:48:36;99343.19;;;37.70;29.98
35694;BME280;21812;55.536;37.664;2023-08-07T11:51:03;99346.28;;;38.02;30.13
35694;BME280;21812;55.536;37.664;2023-08-07T11:53:31;99330.59;;;38.28;30.07
35694;BME280;21812;55.536;37.664;2023-08-07T11:56:06;99324.50;;;38.63;28.63
35694;BME280;21812;55.536;37.664;2023-08-07T11:58:37;99335.22;;;38.58;29.20
35694;BME280;21812;55.536;37.664;2023-08-07T12:01:10;99350.44;;;38.71;28.87
35694;BME280;21812;55.536;37.664;2023-08-07T12:03:38;99338.53;;;38.81;28.62
35694;BME280;21812;55.536;37.664;2023-08-07T12:06:05;99335.00;;;38.91;28.64
35694;BME280;21812;55.536;37.664;2023-08-07T12:11:01;99317.88;;;38.97;27.85
35694;BME280;21812;55.536;37.664;2023-08-07T12:13:28;99321.25;;;39.42;27.92
35694;BME280;21812;55.536;37.664;2023-08-07T12:15:57;99325.72;;;39.57;27.53
35694;BME280;21812;55.536;37.664;2023-08-07T12:18:23;99316.16;;;39.73;26.85
35694;BME280;21812;55.536;37.664;2023-08-07T12:20:52;99317.75;;;39.81;27.22
35694;BME280;21812;55.536;37.664;2023-08-07T12:23:20;99316.59;;;40.07;27.13
35694;BME280;21812;55.536;37.664;2023-08-07T12:25:46;99313.81;;;40.03;26.78
35694;BME280;21812;55.536;37.664;2023-08-07T12:28:12;99311.41;;;40.23;26.88
35694;BME280;21812;55.536;37.664;2023-08-07T12:30:38;99304.59;;;40.17;25.95
35694;BME280;21812;55.536;37.664;2023-08-07T12:33:04;99303.41;;;40.00;27.13
35694;BME280;21812;55.536;37.664;2023-08-07T12:35:31;99307.44;;;40.14;26.73
35694;BME280;21812;55.536;37.664;2023-08-07T12:37:57;99295.84;;;40.33;26.49
35694;BME280;21812;55.536;37.664;2023-08-07T12:40:23;99288.94;;;40.70;26.93
35694;BME280;21812;55.536;37.664;2023-08-07T12:42:49;99298.47;;;40.94;25.65
35694;BME280;21812;55.536;37.664;2023-08-07T12:45:16;99284.03;;;41.03;26.01
35694;BME280;21812;55.536;37.664;2023-08-07T12:47:45;99284.81;;;41.07;25.50
35694;BME280;21812;55.536;37.664;2023-08-07T12:50:11;99284.38;;;41.12;25.24
35694;BME280;21812;55.536;37.664;2023-08-07T12:52:38;99289.97;;;41.83;25.06
35694;BME280;21812;55.536;37.664;2023-08-07T12:55:05;99277.16;;;41.85;24.62
35694;BME280;21812;55.536;37.664;2023-08-07T12:57:31;99275.31;;;41.60;24.42
35694;BME280;21812;55.536;37.664;2023-08-07T12:59:57;99278.41;;;41.07;24.92
35694;BME280;21812;55.536;37.664;2023-08-07T13:02:23;99279.00;;;40.48;25.50
35694;BME280;21812;55.536;37.664;2023-08-07T13:04:49;99268.56;;;40.66;25.01
35694;BME280;21812;55.536;37.664;2023-08-07T13:07:15;99258.16;;;40.70;25.46
35694;BME280;21812;55.536;37.664;2023-08-07T13:09:40;99251.25;;;41.00;24.76